Terminal Aerodrome Forecast
Issued by NWS

Home | Current Version | Previous Version | Text Only | Print | Product List | Glossary On
Versions: 1 2 3 4 5 6 7 8 9 10 11 12 13 14 15 16 17 18 19 20 21 22
000
FTUS42 KFFC 251131
TAFFTY
TAF
KFTY 251131Z 2512/2612 25007KT P6SM VCSH BKN015 BKN050
     FM251300 27010G20KT P6SM SCT015 SCT080
     FM251500 27013G23KT P6SM SCT040
     FM260100 27007KT P6SM FEW040
     FM260500 26003KT P6SM SKC=

USA.gov is the U.S. government's official web portal to all federal, state and local government web resources and services.